Time;durP1;ratioP1;P1;durP2;ratioP2;P2;SDS_P1;SDS_P2;PMS_P1;PMS_P2;Temp;Humidity;BMP_temperature;BMP_pressure;BME280_temperature;BME280_humidity;BME280_pressure;Samples;Min_cycle;Max_cycle;Signal;HPM_P1;HPM_P2
2023/07/20 00:00:02;;;;;;;0.50;0.50;;;;;;;21.13;46.21;99291.19;336579;28;4517;-77
2023/07/20 00:00:15;;;;;;;0.60;0.50;;;;;;;21.18;45.89;99298.72;334585;28;17941;-77
2023/07/20 00:00:27;;;;;;;1.27;0.45;;;;;;;21.22;45.72;99295.69;336097;28;4602;-77
2023/07/20 00:00:39;;;;;;;1.50;0.60;;;;;;;21.25;45.89;99295.44;336357;28;4660;-77
2023/07/20 00:00:53;;;;;;;1.05;0.63;;;;;;;21.20;46.10;99300.25;333068;28;10931;-78
2023/07/20 00:01:05;;;;;;;0.82;0.60;;;;;;;21.23;45.67;99297.38;336469;29;4506;-78
2023/07/20 00:01:17;;;;;;;0.52;0.50;;;;;;;21.26;45.92;99301.56;328535;28;18319;-78
2023/07/20 00:01:29;;;;;;;0.50;0.50;;;;;;;21.27;45.79;99292.66;336686;28;4815;-78
2023/07/20 00:01:44;;;;;;;0.50;0.50;;;;;;;21.29;45.79;99302.16;333680;28;16171;-78
2023/07/20 00:01:56;;;;;;;0.50;0.50;;;;;;;21.29;45.92;99296.03;335941;28;8588;-78
2023/07/20 00:02:08;;;;;;;0.50;0.50;;;;;;;21.21;46.13;99294.03;334076;28;18145;-78
2023/07/20 00:02:20;;;;;;;0.60;0.52;;;;;;;21.24;45.94;99300.84;330438;29;5260;-77
2023/07/20 00:02:32;;;;;;;0.55;0.55;;;;;;;21.24;45.93;99293.75;333041;29;18162;-77
2023/07/20 00:02:44;;;;;;;0.47;0.47;;;;;;;21.24;46.05;99298.22;336051;29;4480;-77
2023/07/20 00:03:16;;;;;;;0.50;0.50;;;;;;;21.26;45.97;99293.63;333201;29;11782;-77
2023/07/20 00:03:29;;;;;;;0.80;0.52;;;;;;;21.32;45.81;99295.75;332125;29;16990;-77
2023/07/20 00:03:41;;;;;;;1.02;0.60;;;;;;;21.32;45.68;99301.06;335248;29;4641;-77
2023/07/20 00:03:56;;;;;;;0.90;0.65;;;;;;;21.26;46.06;99302.41;331966;29;17971;-77
2023/07/20 00:04:08;;;;;;;0.70;0.65;;;;;;;21.13;46.28;99297.28;331991;29;17877;-77
2023/07/20 00:04:20;;;;;;;0.73;0.70;;;;;;;21.18;46.00;99293.44;335582;28;5358;-77
2023/07/20 00:04:32;;;;;;;0.90;0.60;;;;;;;21.20;46.09;99296.78;331716;29;11982;-77
2023/07/20 00:04:45;;;;;;;0.77;0.52;;;;;;;21.18;46.49;99298.72;334981;29;5484;-77
2023/07/20 00:04:57;;;;;;;0.80;0.60;;;;;;;21.14;46.63;99304.25;334959;29;5226;-77
2023/07/20 00:05:09;;;;;;;1.80;0.90;;;;;;;21.12;46.56;99295.59;326972;29;11347;-77
2023/07/20 00:05:24;;;;;;;2.00;0.93;;;;;;;21.11;46.61;99301.88;335218;29;4465;-77
2023/07/20 00:05:37;;;;;;;1.23;0.60;;;;;;;21.17;46.27;99299.66;333699;28;18236;-77
2023/07/20 00:05:49;;;;;;;0.50;0.50;;;;;;;21.20;46.39;99302.91;333282;29;18418;-77
2023/07/20 00:06:01;;;;;;;0.90;0.60;;;;;;;21.25;45.96;99294.59;336486;29;4475;-77
2023/07/20 00:06:13;;;;;;;0.95;0.63;;;;;;;21.26;46.06;99291.00;333276;29;18145;-77
2023/07/20 00:06:27;;;;;;;0.85;0.60;;;;;;;21.22;46.46;99300.13;336174;29;4771;-77
2023/07/20 00:06:40;;;;;;;1.15;0.75;;;;;;;21.17;46.31;99297.03;333432;29;18290;-77
2023/07/20 00:06:52;;;;;;;0.95;0.70;;;;;;;21.10;46.58;99302.81;336099;29;5342;-77
2023/07/20 00:07:04;;;;;;;0.77;0.60;;;;;;;21.11;46.46;99299.22;334712;28;16943;-77
2023/07/20 00:07:16;;;;;;;0.60;0.50;;;;;;;21.03;46.75;99298.19;337382;28;5289;-77
2023/07/20 00:07:28;;;;;;;0.70;0.57;;;;;;;21.03;46.63;99301.66;335113;28;5292;-77
2023/07/20 00:07:40;;;;;;;0.60;0.60;;;;;;;21.08;46.59;99299.47;337075;28;5111;-77
2023/07/20 00:07:52;;;;;;;0.68;0.68;;;;;;;21.09;46.74;99301.16;337572;28;5323;-77
2023/07/20 00:08:04;;;;;;;0.68;0.68;;;;;;;21.14;46.60;99298.94;333805;28;18329;-76
2023/07/20 00:08:18;;;;;;;0.70;0.70;;;;;;;21.15;46.75;99294.53;336155;28;4553;-77
2023/07/20 00:08:30;;;;;;;0.50;0.50;;;;;;;21.19;46.53;99301.25;333811;28;5435;-77
2023/07/20 00:08:42;;;;;;;0.50;0.50;;;;;;;21.20;46.17;99302.06;336247;28;4607;-77
2023/07/20 00:08:55;;;;;;;0.50;0.50;;;;;;;21.21;46.22;99298.44;333637;28;11541;-77
2023/07/20 00:09:07;;;;;;;0.60;0.50;;;;;;;21.19;46.41;99297.72;334936;29;4768;-77
2023/07/20 00:09:21;;;;;;;0.82;0.50;;;;;;;21.18;46.00;99301.34;332517;29;11165;-77
2023/07/20 00:09:33;;;;;;;0.93;0.50;;;;;;;21.22;46.22;99297.50;335090;29;4737;-77
2023/07/20 00:09:45;;;;;;;0.88;0.60;;;;;;;21.21;46.37;99298.44;334703;29;16377;-77
2023/07/20 00:09:57;;;;;;;0.60;0.60;;;;;;;21.20;46.09;99297.63;327381;29;18157;-77
2023/07/20 00:10:09;;;;;;;0.73;0.60;;;;;;;21.14;46.67;99296.31;335816;29;4483;-77
2023/07/20 00:10:21;;;;;;;0.80;0.63;;;;;;;21.09;46.71;99301.16;330212;29;18003;-77
2023/07/20 00:10:33;;;;;;;1.42;0.60;;;;;;;21.10;46.76;99294.88;334669;29;4529;-77
2023/07/20 00:10:45;;;;;;;1.42;0.52;;;;;;;21.10;46.82;99299.34;332300;29;11458;-77
2023/07/20 00:10:58;;;;;;;1.52;0.63;;;;;;;21.10;46.85;99294.88;334444;29;4470;-77
2023/07/20 00:11:10;;;;;;;0.90;0.60;;;;;;;21.04;46.87;99303.31;333865;29;4519;-77
2023/07/20 00:11:26;;;;;;;0.85;0.50;;;;;;;21.09;46.52;99298.50;327695;28;18158;-77
2023/07/20 00:11:39;;;;;;;0.63;0.50;;;;;;;21.12;46.43;99300.06;332225;28;17729;-77
2023/07/20 00:11:52;;;;;;;1.13;0.57;;;;;;;21.19;46.46;99297.72;332300;28;16489;-77
2023/07/20 00:12:04;;;;;;;1.10;0.60;;;;;;;21.20;46.16;99296.78;334729;28;5579;-77
2023/07/20 00:12:16;;;;;;;0.85;0.55;;;;;;;21.21;46.10;99290.50;333434;29;18050;-77
2023/07/20 00:12:29;;;;;;;2.03;0.70;;;;;;;21.18;46.52;99298.72;336284;29;5384;-77
2023/07/20 00:12:41;;;;;;;1.90;0.60;;;;;;;21.22;46.20;99294.84;336724;28;16191;-77
2023/07/20 00:12:53;;;;;;;0.82;0.50;;;;;;;21.23;46.20;99301.81;329547;28;18132;-77
2023/07/20 00:13:05;;;;;;;0.50;0.43;;;;;;;21.26;46.19;99297.09;337174;28;4969;-77
2023/07/20 00:13:19;;;;;;;0.47;0.45;;;;;;;21.26;46.12;99296.28;329747;28;18259;-77
2023/07/20 00:13:31;;;;;;;0.70;0.50;;;;;;;21.23;46.23;99296.50;336409;28;4503;-77
2023/07/20 00:13:43;;;;;;;0.75;0.50;;;;;;;21.23;46.39;99299.16;333689;29;17035;-77
2023/07/20 00:13:55;;;;;;;0.80;0.50;;;;;;;21.21;46.24;99298.44;335924;29;4583;-77
2023/07/20 00:14:07;;;;;;;0.47;0.47;;;;;;;21.22;46.05;99300.13;333234;28;18056;-77
2023/07/20 00:14:19;;;;;;;0.50;0.50;;;;;;;21.23;46.36;99293.88;336209;28;5147;-77
2023/07/20 00:14:32;;;;;;;0.50;0.50;;;;;;;21.20;46.28;99296.78;329236;28;4655;-77
2023/07/20 00:14:44;;;;;;;0.50;0.50;;;;;;;21.14;46.21;99298.94;332040;28;18298;-77
2023/07/20 00:14:56;;;;;;;0.80;0.50;;;;;;;21.14;46.44;99298.94;336363;28;4755;-77
2023/07/20 00:15:08;;;;;;;0.75;0.50;;;;;;;21.15;46.54;99300.66;333175;29;16227;-77
2023/07/20 00:15:20;;;;;;;0.82;0.50;;;;;;;21.14;46.45;99303.41;336416;29;4501;-77
2023/07/20 00:15:32;;;;;;;0.80;0.60;;;;;;;21.07;46.61;99297.78;334038;29;4568;-77
2023/07/20 00:15:44;;;;;;;0.50;0.50;;;;;;;21.04;46.56;99298.03;335403;29;18345;-77
2023/07/20 00:15:57;;;;;;;0.50;0.50;;;;;;;21.04;46.86;99298.03;336092;29;4489;-77
2023/07/20 00:16:09;;;;;;;0.57;0.50;;;;;;;21.03;46.78;99299.00;327830;29;16883;-77
2023/07/20 00:16:21;;;;;;;0.40;0.40;;;;;;;21.00;47.05;99301.88;336313;29;4505;-77
2023/07/20 00:16:33;;;;;;;0.50;0.43;;;;;;;20.96;47.01;99305.75;334096;28;12351;-77
2023/07/20 00:16:46;;;;;;;0.68;0.50;;;;;;;21.00;46.95;99296.59;337435;28;5229;-77
2023/07/20 00:16:58;;;;;;;0.73;0.50;;;;;;;20.94;47.23;99297.09;335925;28;4880;-77
2023/07/20 00:17:10;;;;;;;0.57;0.50;;;;;;;20.98;46.86;99298.53;335663;28;18129;-77
2023/07/20 00:17:22;;;;;;;0.68;0.50;;;;;;;21.00;46.77;99301.88;337714;28;4645;-77
2023/07/20 00:17:37;;;;;;;0.80;0.60;;;;;;;20.89;47.51;99304.59;333932;28;4637;-77
2023/07/20 00:17:49;;;;;;;0.70;0.60;;;;;;;20.90;47.24;99293.88;335886;29;5091;-77
2023/07/20 00:18:01;;;;;;;0.70;0.70;;;;;;;20.92;47.22;99299.88;333404;29;18382;-77
2023/07/20 00:18:13;;;;;;;0.80;0.68;;;;;;;20.97;47.31;99296.00;336272;28;5290;-77
2023/07/20 00:18:25;;;;;;;0.73;0.68;;;;;;;20.91;47.29;99292.09;333637;29;5174;-77
2023/07/20 00:18:37;;;;;;;1.10;0.60;;;;;;;20.91;47.34;99297.38;336230;29;4583;-77
2023/07/20 00:18:49;;;;;;;0.90;0.60;;;;;;;20.91;47.41;99300.84;333074;28;5200;-77
2023/07/20 00:19:01;;;;;;;1.10;0.60;;;;;;;20.91;47.56;99297.38;336153;29;4480;-77
2023/07/20 00:19:13;;;;;;;1.02;0.60;;;;;;;20.82;47.75;99292.81;336319;29;4514;-77
2023/07/20 00:19:27;;;;;;;1.00;0.60;;;;;;;20.79;47.46;99299.19;329955;28;4597;-77
2023/07/20 00:19:39;;;;;;;0.98;0.60;;;;;;;20.82;47.44;99303.38;336500;28;4500;-77
2023/07/20 00:19:51;;;;;;;1.08;0.63;;;;;;;20.83;47.23;99299.81;333590;28;18182;-77
2023/07/20 00:20:05;;;;;;;0.93;0.75;;;;;;;20.81;47.61;99299.09;336194;28;4508;-77
2023/07/20 00:20:17;;;;;;;0.93;0.60;;;;;;;20.83;47.44;99302.44;333615;28;19113;-77
2023/07/20 00:20:29;;;;;;;0.90;0.60;;;;;;;20.79;47.69;99304.47;336733;28;5225;-77
2023/07/20 00:20:41;;;;;;;1.10;0.70;;;;;;;20.84;47.34;99301.47;328985;28;18251;-78
2023/07/20 00:20:53;;;;;;;0.82;0.70;;;;;;;20.82;47.64;99303.38;336801;28;5180;-77
2023/07/20 00:21:05;;;;;;;0.82;0.60;;;;;;;20.82;47.29;99300.75;333785;28;11542;-77
2023/07/20 00:21:17;;;;;;;0.82;0.55;;;;;;;20.81;47.56;99301.72;336762;28;4494;-77
2023/07/20 00:21:29;;;;;;;0.70;0.60;;;;;;;20.81;47.69;99301.72;336695;28;4541;-77
2023/07/20 00:21:42;;;;;;;0.63;0.63;;;;;;;20.83;47.37;99305.09;334268;28;5350;-77
2023/07/20 00:21:55;;;;;;;1.50;0.80;;;;;;;20.87;47.27;99298.59;336212;29;5281;-76
2023/07/20 00:22:07;;;;;;;1.45;0.65;;;;;;;20.82;47.33;99303.38;333070;29;16409;-77
2023/07/20 00:22:19;;;;;;;1.48;0.70;;;;;;;20.77;47.65;99300.28;336081;29;5023;-77
2023/07/20 00:22:31;;;;;;;0.55;0.55;;;;;;;20.76;47.71;99304.72;336165;28;4579;-77
2023/07/20 00:22:43;;;;;;;0.70;0.70;;;;;;;20.78;47.68;99301.97;333136;29;18437;-77
2023/07/20 00:22:57;;;;;;;1.00;0.70;;;;;;;20.83;47.42;99302.44;336090;29;4511;-77
2023/07/20 00:23:09;;;;;;;0.90;0.68;;;;;;;20.73;47.69;99303.16;330644;29;19109;-77
2023/07/20 00:23:22;;;;;;;1.42;0.57;;;;;;;20.77;47.58;99295.84;332559;29;11033;-77
2023/07/20 00:23:34;;;;;;;1.55;0.50;;;;;;;20.70;47.70;99300.75;336067;29;4560;-77
2023/07/20 00:23:47;;;;;;;0.98;0.50;;;;;;;20.71;47.55;99302.44;333122;29;17880;-77
2023/07/20 00:23:59;;;;;;;0.68;0.50;;;;;;;20.73;47.91;99303.16;337033;28;5475;-77
2023/07/20 00:24:11;;;;;;;0.77;0.63;;;;;;;20.74;48.06;99304.00;336217;28;5191;-77
2023/07/20 00:24:23;;;;;;;0.93;0.65;;;;;;;20.80;47.69;99305.31;332500;28;18227;-77
2023/07/20 00:24:35;;;;;;;1.23;0.70;;;;;;;20.82;47.52;99298.94;336459;28;4506;-77
2023/07/20 00:24:47;;;;;;;0.80;0.60;;;;;;;20.82;47.97;99303.38;333420;28;17867;-77
2023/07/20 00:24:59;;;;;;;0.80;0.60;;;;;;;20.83;47.36;99305.91;335421;28;4573;-77
2023/07/20 00:25:11;;;;;;;0.60;0.60;;;;;;;20.83;47.60;99303.28;330599;28;4742;-77
2023/07/20 00:25:24;;;;;;;0.60;0.60;;;;;;;20.85;47.31;99300.50;332281;28;8189;-77
2023/07/20 00:25:36;;;;;;;0.65;0.60;;;;;;;20.83;47.55;99300.63;335066;28;4565;-77
2023/07/20 00:25:48;;;;;;;0.70;0.60;;;;;;;20.84;47.39;99306.75;332420;28;18338;-77
2023/07/20 00:26:00;;;;;;;0.82;0.63;;;;;;;20.77;47.76;99300.28;336222;28;4670;-77
2023/07/20 00:26:12;;;;;;;0.90;0.70;;;;;;;20.84;47.51;99306.75;332185;29;12461;-77
2023/07/20 00:26:24;;;;;;;0.95;0.70;;;;;;;20.77;47.79;99295.00;336226;28;4472;-77
2023/07/20 00:26:37;;;;;;;1.00;0.70;;;;;;;20.63;48.16;99298.75;336122;28;4552;-77
2023/07/20 00:26:49;;;;;;;0.85;0.60;;;;;;;20.70;47.94;99300.75;333559;28;17997;-77
2023/07/20 00:27:02;;;;;;;0.70;0.55;;;;;;;20.73;47.71;99304.97;335871;28;4682;-77
2023/07/20 00:27:14;;;;;;;0.60;0.60;;;;;;;20.66;47.98;99309.91;333545;28;18168;-77
2023/07/20 00:27:27;;;;;;;0.70;0.65;;;;;;;20.53;48.45;99298.63;336155;28;4681;-77
2023/07/20 00:27:38;;;;;;;0.60;0.50;;;;;;;20.52;48.30;99302.19;333688;28;18376;-77
2023/07/20 00:27:51;;;;;;;0.70;0.60;;;;;;;20.51;48.50;99297.91;335958;28;4510;-77
2023/07/20 00:28:03;;;;;;;0.60;0.60;;;;;;;20.55;48.35;99304.63;336382;28;4538;-77
2023/07/20 00:28:15;;;;;;;0.70;0.63;;;;;;;20.57;48.47;99302.69;333991;28;18527;-77
2023/07/20 00:28:27;;;;;;;0.68;0.68;;;;;;;20.59;48.21;99295.53;337104;28;4464;-77
2023/07/20 00:28:39;;;;;;;0.57;0.57;;;;;;;20.59;48.40;99300.81;333151;28;17500;-77
2023/07/20 00:28:51;;;;;;;0.52;0.50;;;;;;;20.64;48.02;99297.78;335967;28;4551;-77
2023/07/20 00:29:03;;;;;;;0.60;0.50;;;;;;;20.66;48.01;99304.59;336312;28;5729;-77
2023/07/20 00:29:16;;;;;;;0.65;0.57;;;;;;;20.68;47.86;99297.41;335892;28;18177;-77
2023/07/20 00:29:28;;;;;;;0.70;0.60;;;;;;;20.70;48.17;99294.66;336178;29;4541;-77
2023/07/20 00:29:40;;;;;;;0.65;0.60;;;;;;;20.70;48.00;99300.75;331761;29;18154;-77
2023/07/20 00:29:52;;;;;;;0.50;0.50;;;;;;;20.64;48.18;99295.97;332792;29;18469;-77
2023/07/20 00:30:05;;;;;;;0.50;0.50;;;;;;;20.59;48.01;99299.97;333758;28;9912;-77
2023/07/20 00:30:18;;;;;;;0.55;0.50;;;;;;;20.59;48.46;99300.81;336067;28;4468;-77
2023/07/20 00:30:30;;;;;;;0.90;0.60;;;;;;;20.61;48.36;99296.25;333535;28;18145;-77
2023/07/20 00:30:42;;;;;;;1.13;0.88;;;;;;;20.60;48.26;99299.00;336158;28;5758;-77
2023/07/20 00:30:54;;;;;;;0.73;0.70;;;;;;;20.60;48.26;99299.00;336171;28;5442;-77
2023/07/20 00:31:06;;;;;;;0.57;0.57;;;;;;;20.46;48.36;99297.41;333191;28;18260;-77
2023/07/20 00:31:18;;;;;;;0.47;0.47;;;;;;;20.50;48.58;99302.34;336419;29;5152;-78
2023/07/20 00:31:30;;;;;;;0.63;0.63;;;;;;;20.50;48.79;99296.22;333269;29;18084;-77
2023/07/20 00:31:43;;;;;;;0.60;0.60;;;;;;;20.46;48.40;99298.25;336304;29;4536;-77
2023/07/20 00:31:56;;;;;;;0.50;0.50;;;;;;;20.52;48.44;99294.28;332459;29;18073;-77
2023/07/20 00:32:08;;;;;;;0.40;0.40;;;;;;;20.55;48.35;99301.97;335602;28;4479;-77
2023/07/20 00:32:20;;;;;;;0.40;0.40;;;;;;;20.53;48.40;99295.97;335764;28;15994;-77
2023/07/20 00:32:32;;;;;;;0.65;0.60;;;;;;;20.55;48.41;99296.69;333469;28;18309;-77
2023/07/20 00:32:44;;;;;;;0.90;0.70;;;;;;;20.56;48.34;99293.06;331476;28;5338;-77
2023/07/20 00:32:56;;;;;;;0.77;0.60;;;;;;;20.55;48.46;99296.69;333093;28;18095;-77
2023/07/20 00:33:11;;;;;;;0.80;0.60;;;;;;;20.46;48.36;99294.78;336235;28;4517;-77
2023/07/20 00:33:23;;;;;;;0.65;0.50;;;;;;;20.49;48.58;99297.19;333484;28;18312;-77
2023/07/20 00:33:35;;;;;;;0.43;0.43;;;;;;;20.43;48.63;99305.59;336131;29;4883;-77
2023/07/20 00:33:47;;;;;;;0.57;0.57;;;;;;;20.50;48.56;99293.56;332801;28;17998;-77
2023/07/20 00:33:59;;;;;;;0.70;0.60;;;;;;;20.55;48.19;99297.53;335601;28;4658;-77
2023/07/20 00:34:11;;;;;;;0.90;0.70;;;;;;;20.54;48.26;99295.88;334915;28;4509;-77
2023/07/20 00:34:23;;;;;;;0.70;0.60;;;;;;;20.58;48.16;99296.44;332283;28;18318;-77
2023/07/20 00:34:35;;;;;;;0.52;0.52;;;;;;;20.60;48.28;99294.53;334789;28;4901;-77
2023/07/20 00:34:47;;;;;;;0.50;0.50;;;;;;;20.64;47.96;99293.34;332763;28;18324;-77
2023/07/20 00:34:59;;;;;;;2.20;0.57;;;;;;;20.63;48.19;99293.47;336332;29;4502;-77
2023/07/20 00:35:11;;;;;;;2.40;0.60;;;;;;;20.64;48.02;99298.63;333933;29;10554;-77
2023/07/20 00:35:23;;;;;;;1.13;0.60;;;;;;;20.66;48.03;99304.59;334363;29;17963;-77
2023/07/20 00:35:36;;;;;;;0.75;0.57;;;;;;;20.68;48.10;99297.41;336095;28;4634;-77
2023/07/20 00:35:48;;;;;;;0.98;0.70;;;;;;;20.71;48.02;99302.44;333720;28;18300;-77
2023/07/20 00:36:00;;;;;;;1.05;0.75;;;;;;;20.71;47.89;99305.09;336317;29;4492;-77
2023/07/20 00:36:12;;;;;;;1.25;0.75;;;;;;;20.58;48.19;99304.34;333617;28;18151;-77
2023/07/20 00:36:24;;;;;;;1.10;0.63;;;;;;;20.60;48.15;99307.75;336125;29;5500;-77
2023/07/20 00:36:36;;;;;;;1.40;0.63;;;;;;;20.59;48.38;99297.31;334496;29;6806;-77
2023/07/20 00:36:49;;;;;;;1.10;0.73;;;;;;;20.57;48.26;99302.69;334299;28;19451;-77
2023/07/20 00:37:01;;;;;;;1.25;0.75;;;;;;;20.61;48.25;99303.31;335382;29;4576;-77
2023/07/20 00:37:13;;;;;;;1.40;0.60;;;;;;;20.60;48.39;99305.09;328967;29;16846;-77
2023/07/20 00:37:25;;;;;;;0.90;0.50;;;;;;;20.63;48.01;99299.59;336315;28;4478;-77
2023/07/20 00:37:38;;;;;;;0.80;0.60;;;;;;;20.66;48.08;99303.78;337437;28;4497;-76
2023/07/20 00:37:50;;;;;;;0.90;0.70;;;;;;;20.64;48.15;99306.53;334879;28;17961;-77
2023/07/20 00:38:02;;;;;;;0.98;0.60;;;;;;;20.61;48.04;99301.53;335031;28;10764;-77
2023/07/20 00:38:14;;;;;;;0.73;0.55;;;;;;;20.61;48.12;99301.53;337539;28;5210;-77
2023/07/20 00:38:26;;;;;;;0.80;0.60;;;;;;;20.60;48.18;99305.09;337417;28;4573;-77
2023/07/20 00:38:39;;;;;;;0.90;0.60;;;;;;;20.55;48.21;99301.97;334057;28;12802;-77
2023/07/20 00:38:51;;;;;;;1.10;0.60;;;;;;;20.54;48.25;99305.56;332383;28;4551;-77
2023/07/20 00:39:03;;;;;;;1.33;0.80;;;;;;;20.55;48.41;99307.25;336348;28;4554;-77
2023/07/20 00:39:15;;;;;;;1.45;0.90;;;;;;;20.59;48.10;99302.63;333793;28;18061;-77
2023/07/20 00:39:27;;;;;;;0.98;0.80;;;;;;;20.57;48.36;99294.78;336690;28;5050;-77
2023/07/20 00:39:39;;;;;;;0.73;0.60;;;;;;;20.58;48.45;99299.06;333859;28;16727;-77
2023/07/20 00:39:51;;;;;;;0.40;0.40;;;;;;;20.60;48.19;99304.28;336572;28;4483;-77
2023/07/20 00:40:04;;;;;;;0.98;0.55;;;;;;;20.59;48.14;99303.44;336382;28;4534;-77
2023/07/20 00:40:17;;;;;;;0.95;0.60;;;;;;;20.55;48.27;99301.97;333763;28;17926;-77
2023/07/20 00:40:40;;;;;;;0.50;0.50;;;;;;;20.41;48.73;99304.88;330763;28;5456;-77
2023/07/20 00:40:52;;;;;;;0.70;0.50;;;;;;;20.40;48.74;99304.00;333577;28;17638;-77
2023/07/20 00:41:03;;;;;;;0.68;0.40;;;;;;;20.31;49.00;99310.88;336688;28;4525;-77
2023/07/20 00:41:15;;;;;;;0.90;0.50;;;;;;;20.35;48.80;99304.38;334745;28;18084;-77
2023/07/20 00:41:29;;;;;;;1.38;0.55;;;;;;;20.37;48.93;99306.06;337669;28;5291;-77
2023/07/20 00:41:41;;;;;;;0.82;0.40;;;;;;;20.24;49.24;99304.41;329785;28;18174;-77
2023/07/20 00:41:53;;;;;;;0.90;0.40;;;;;;;20.31;49.03;99304.75;337288;28;4551;-77
2023/07/20 00:42:05;;;;;;;1.40;0.60;;;;;;;20.37;48.75;99308.72;330054;28;18477;-77
2023/07/20 00:42:17;;;;;;;1.23;0.70;;;;;;;20.38;48.82;99311.22;337610;28;4771;-77
2023/07/20 00:42:30;;;;;;;0.98;0.70;;;;;;;20.41;48.80;99310.16;335007;28;11026;-77
2023/07/20 00:42:42;;;;;;;0.65;0.60;;;;;;;20.40;48.76;99303.19;337376;28;5597;-77
2023/07/20 00:42:54;;;;;;;0.70;0.68;;;;;;;20.37;48.65;99308.72;337415;28;4496;-77
2023/07/20 00:43:06;;;;;;;1.00;0.75;;;;;;;20.30;49.14;99309.19;334654;28;19128;-77
2023/07/20 00:43:19;;;;;;;0.90;0.60;;;;;;;20.31;49.04;99305.59;332826;28;5191;-77
2023/07/20 00:43:31;;;;;;;1.02;0.57;;;;;;;20.29;48.91;99304.88;333540;28;19143;-77
2023/07/20 00:43:43;;;;;;;1.00;0.70;;;;;;;20.27;49.02;99298.88;336183;28;4522;-77
2023/07/20 00:43:56;;;;;;;0.70;0.60;;;;;;;20.21;49.45;99306.44;336455;28;4538;-77
2023/07/20 00:44:08;;;;;;;0.73;0.60;;;;;;;20.19;49.38;99303.09;333440;28;18082;-77
2023/07/20 00:44:20;;;;;;;0.63;0.60;;;;;;;20.23;49.15;99308.00;336266;28;4671;-77
2023/07/20 00:44:32;;;;;;;0.63;0.60;;;;;;;20.22;49.27;99303.69;333430;28;18041;-77
2023/07/20 00:44:44;;;;;;;0.50;0.50;;;;;;;20.27;49.21;99298.88;336119;28;5165;-77
2023/07/20 00:44:56;;;;;;;0.60;0.60;;;;;;;20.25;49.21;99308.72;336006;28;5426;-77
2023/07/20 00:45:08;;;;;;;0.82;0.52;;;;;;;20.22;49.24;99305.47;333857;28;18123;-77
2023/07/20 00:45:20;;;;;;;0.90;0.55;;;;;;;20.22;49.26;99306.31;337444;28;5271;-77
2023/07/20 00:45:33;;;;;;;0.90;0.60;;;;;;;20.20;49.38;99302.94;334520;28;19116;-77
2023/07/20 00:45:45;;;;;;;0.60;0.60;;;;;;;20.22;49.35;99305.47;337632;28;5152;-77
2023/07/20 00:45:58;;;;;;;0.75;0.50;;;;;;;20.23;49.48;99292.16;334748;28;17923;-77
2023/07/20 00:46:10;;;;;;;0.70;0.45;;;;;;;20.18;49.30;99310.13;337497;28;4479;-77
2023/07/20 00:46:23;;;;;;;0.55;0.43;;;;;;;20.17;49.44;99308.47;334982;28;11143;-77
2023/07/20 00:46:36;;;;;;;0.50;0.45;;;;;;;20.23;49.18;99297.44;330903;28;5453;-77
2023/07/20 00:46:48;;;;;;;0.55;0.47;;;;;;;20.29;48.86;99296.94;333860;28;4644;-77
2023/07/20 00:47:01;;;;;;;0.50;0.50;;;;;;;20.33;48.94;99303.66;336420;28;5118;-77
2023/07/20 00:47:13;;;;;;;0.50;0.50;;;;;;;20.35;48.87;99301.75;333309;28;16556;-77
2023/07/20 00:47:27;;;;;;;0.73;0.50;;;;;;;20.35;48.79;99301.75;336274;28;4480;-78
2023/07/20 00:47:39;;;;;;;2.65;0.50;;;;;;;20.25;49.09;99303.44;333395;28;18055;-77
2023/07/20 00:47:51;;;;;;;2.47;0.60;;;;;;;20.26;48.85;99307.78;334995;29;4621;-77
2023/07/20 00:48:04;;;;;;;0.45;0.45;;;;;;;20.27;49.01;99301.50;334747;29;5256;-77
2023/07/20 00:48:16;;;;;;;0.65;0.40;;;;;;;20.28;49.07;99305.84;332235;29;18031;-77
2023/07/20 00:48:30;;;;;;;0.80;0.50;;;;;;;20.31;48.76;99307.41;334715;29;5386;-77
2023/07/20 00:48:42;;;;;;;2.10;0.50;;;;;;;20.27;48.79;99298.88;333151;29;18071;-77
2023/07/20 00:48:55;;;;;;;1.85;0.60;;;;;;;20.31;48.76;99310.88;335070;29;4502;-77
2023/07/20 00:49:07;;;;;;;0.82;0.60;;;;;;;20.34;48.52;99305.34;333565;28;17257;-77
2023/07/20 00:49:21;;;;;;;1.00;0.63;;;;;;;20.25;48.84;99305.25;334981;28;4579;-77
2023/07/20 00:49:33;;;;;;;0.90;0.60;;;;;;;20.29;49.05;99304.88;331497;29;17919;-77
2023/07/20 00:49:46;;;;;;;0.73;0.50;;;;;;;20.24;49.19;99303.53;331762;29;18899;-77
2023/07/20 00:49:58;;;;;;;0.90;0.50;;;;;;;20.25;48.96;99306.06;335995;29;5082;-77
2023/07/20 00:50:10;;;;;;;0.85;0.57;;;;;;;20.21;49.44;99299.34;333530;29;18008;-77
2023/07/20 00:50:23;;;;;;;0.70;0.57;;;;;;;20.22;49.01;99305.47;336206;28;4632;-77
2023/07/20 00:50:36;;;;;;;0.55;0.50;;;;;;;20.25;49.01;99305.25;333437;28;18068;-77
2023/07/20 00:50:48;;;;;;;0.50;0.50;;;;;;;20.24;48.91;99303.53;336047;29;4916;-77
2023/07/20 00:51:01;;;;;;;0.60;0.45;;;;;;;20.28;48.97;99297.94;335499;29;18081;-77
2023/07/20 00:51:14;;;;;;;0.60;0.40;;;;;;;20.27;48.94;99296.22;332662;29;17058;-78
2023/07/20 00:51:26;;;;;;;0.55;0.40;;;;;;;20.26;48.84;99302.50;329528;29;5482;-77
2023/07/20 00:51:38;;;;;;;0.52;0.40;;;;;;;20.30;48.80;99303.06;334709;29;4694;-77
2023/07/20 00:51:50;;;;;;;0.60;0.40;;;;;;;20.27;48.88;99309.44;333055;28;9769;-77
2023/07/20 00:52:04;;;;;;;0.70;0.50;;;;;;;20.22;49.13;99301.06;336102;28;4506;-77
2023/07/20 00:52:16;;;;;;;0.60;0.50;;;;;;;20.17;49.28;99297.91;332414;29;10571;-77
2023/07/20 00:52:28;;;;;;;0.50;0.50;;;;;;;20.19;49.22;99301.28;335032;29;5088;-77
2023/07/20 00:52:41;;;;;;;0.60;0.40;;;;;;;20.21;49.23;99301.16;332119;29;11138;-77
2023/07/20 00:52:55;;;;;;;0.57;0.40;;;;;;;20.22;49.18;99305.47;334307;29;5236;-77
2023/07/20 00:53:07;;;;;;;0.50;0.50;;;;;;;20.25;48.99;99306.06;332149;29;17928;-77
2023/07/20 00:53:20;;;;;;;0.90;0.60;;;;;;;20.26;49.15;99299.84;335034;29;4527;-77
2023/07/20 00:53:32;;;;;;;1.13;0.63;;;;;;;20.24;49.16;99298.25;331412;29;18222;-77
2023/07/20 00:53:44;;;;;;;1.08;0.63;;;;;;;20.30;48.98;99303.94;334545;29;4716;-77
2023/07/20 00:53:56;;;;;;;1.00;0.60;;;;;;;20.31;48.82;99300.31;331821;29;18015;-77
2023/07/20 00:54:09;;;;;;;0.60;0.50;;;;;;;20.32;48.95;99306.41;331870;29;17494;-77
2023/07/20 00:54:21;;;;;;;0.63;0.52;;;;;;;20.31;48.71;99307.41;334069;29;4625;-77
2023/07/20 00:54:34;;;;;;;1.70;0.70;;;;;;;20.28;48.84;99302.34;332191;29;18078;-77
2023/07/20 00:54:47;;;;;;;2.08;0.73;;;;;;;20.30;48.90;99306.56;334501;29;4509;-77
2023/07/20 00:54:59;;;;;;;1.08;0.60;;;;;;;20.34;48.85;99310.63;333055;29;17910;-77
2023/07/20 00:55:11;;;;;;;1.02;0.60;;;;;;;20.37;48.94;99308.72;334953;29;5039;-77
2023/07/20 00:55:25;;;;;;;1.10;0.50;;;;;;;20.28;48.66;99304.97;332288;29;18103;-77
2023/07/20 00:55:37;;;;;;;1.25;0.60;;;;;;;20.30;48.85;99303.94;330671;29;16836;-77
2023/07/20 00:55:49;;;;;;;1.40;0.70;;;;;;;20.26;48.73;99306.91;333661;29;5431;-77
2023/07/20 00:56:01;;;;;;;0.90;0.70;;;;;;;20.24;48.84;99299.13;334192;29;4550;-77
2023/07/20 00:56:13;;;;;;;0.70;0.55;;;;;;;20.27;48.77;99304.16;327537;29;18120;-77
2023/07/20 00:56:25;;;;;;;0.57;0.45;;;;;;;20.29;48.81;99304.88;335026;29;5092;-77
2023/07/20 00:56:38;;;;;;;1.45;0.55;;;;;;;20.27;48.91;99305.97;332050;29;18915;-77
2023/07/20 00:56:52;;;;;;;1.40;0.50;;;;;;;20.26;48.76;99313.03;334832;29;5388;-77
2023/07/20 00:57:06;;;;;;;0.68;0.50;;;;;;;20.27;49.10;99300.69;332278;29;18357;-77
2023/07/20 00:57:19;;;;;;;0.55;0.50;;;;;;;20.28;49.08;99305.84;331422;29;18210;-77
2023/07/20 00:57:31;;;;;;;0.52;0.50;;;;;;;20.27;49.01;99309.44;336539;29;4606;-77
2023/07/20 00:57:44;;;;;;;0.45;0.45;;;;;;;20.27;49.02;99309.44;333175;29;18310;-77
2023/07/20 00:57:57;;;;;;;0.40;0.40;;;;;;;20.30;48.76;99313.63;336189;29;4556;-77
2023/07/20 00:58:10;;;;;;;0.43;0.43;;;;;;;20.30;48.82;99309.19;333666;29;17991;-77
2023/07/20 00:58:23;;;;;;;0.50;0.50;;;;;;;20.24;48.96;99304.41;336219;29;5131;-77
2023/07/20 00:58:36;;;;;;;0.60;0.60;;;;;;;20.23;49.12;99307.16;333572;29;17881;-77
2023/07/20 00:58:48;;;;;;;0.60;0.50;;;;;;;20.25;48.75;99308.72;331474;29;4702;-77
2023/07/20 00:59:00;;;;;;;0.60;0.50;;;;;;;20.18;49.11;99310.13;334600;28;18140;-77
2023/07/20 00:59:13;;;;;;;0.57;0.50;;;;;;;20.19;49.11;99316.28;336057;28;5334;-77
2023/07/20 00:59:25;;;;;;;0.50;0.50;;;;;;;20.21;48.96;99309.91;333270;28;18081;-77
2023/07/20 00:59:37;;;;;;;0.60;0.60;;;;;;;20.22;49.10;99316.03;336112;28;4620;-77
2023/07/20 00:59:49;;;;;;;0.50;0.50;;;;;;;20.22;48.90;99314.25;332437;28;18198;-77